createdAt,value
2022-09-03T00:01:59.975Z,26.98
2022-09-03T00:05:01.026Z,26.65
2022-09-03T00:07:58.263Z,27.38
2022-09-03T00:11:01.545Z,27.20
2022-09-03T00:13:40.774Z,26.58
2022-09-03T00:16:15.168Z,27.05
2022-09-03T00:18:53.379Z,28.63
2022-09-03T00:21:47.255Z,25.52
2022-09-03T00:24:20.874Z,25.17
2022-09-03T00:26:57.270Z,23.83
2022-09-03T00:29:42.771Z,22.58
2022-09-03T00:32:29.280Z,22.77
2022-09-03T00:35:07.351Z,23.70
2022-09-03T00:37:38.083Z,21.95
2022-09-03T00:40:22.097Z,21.15
2022-09-03T00:43:04.168Z,22.08
2022-09-03T00:46:20.659Z,21.90
2022-09-03T00:49:08.317Z,21.83
2022-09-03T00:51:46.316Z,22.45
2022-09-03T00:54:56.782Z,22.90
2022-09-03T00:58:10.790Z,22.52
2022-09-03T01:00:44.631Z,20.70
2022-09-03T01:03:32.462Z,22.20
2022-09-03T01:06:23.475Z,21.77
2022-09-03T01:09:13.592Z,21.55
2022-09-03T01:12:07.778Z,22.20
2022-09-03T01:14:46.014Z,22.52
2022-09-03T01:17:30.573Z,22.42
2022-09-03T01:20:35.413Z,21.58
2022-09-03T01:23:26.013Z,22.75
2022-09-03T01:26:10.158Z,21.30
2022-09-03T01:29:07.720Z,23.05
2022-09-03T01:31:40.100Z,23.15
2022-09-03T01:34:38.215Z,23.45
2022-09-03T01:37:29.662Z,24.67
2022-09-03T01:40:11.238Z,24.13
2022-09-03T01:43:02.402Z,25.90
2022-09-03T01:45:51.483Z,28.92
2022-09-03T01:48:34.599Z,27.90
2022-09-03T01:51:14.735Z,26.60
2022-09-03T01:53:47.071Z,26.65
2022-09-03T01:57:17.252Z,27.40
2022-09-03T02:00:14.909Z,23.15
2022-09-03T02:02:52.453Z,25.15
2022-09-03T02:05:25.924Z,24.80
2022-09-03T02:08:07.491Z,25.58
2022-09-03T02:10:48.138Z,24.73
2022-09-03T02:13:28.255Z,22.95
2022-09-03T02:16:04.866Z,24.13
2022-09-03T02:18:42.641Z,21.55
2022-09-03T02:21:12.263Z,21.88
2022-09-03T02:23:43.242Z,23.30
2022-09-03T02:26:14.930Z,23.73
2022-09-03T02:28:44.424Z,21.57
2022-09-03T02:31:16.419Z,21.23
2022-09-03T02:33:48.756Z,22.58
2022-09-03T02:36:22.372Z,22.13
2022-09-03T02:38:54.401Z,24.88
2022-09-03T02:41:25.564Z,29.50
2022-09-03T02:44:26.852Z,26.00
2022-09-03T02:47:06.291Z,23.98
2022-09-03T02:49:36.327Z,25.13
2022-09-03T02:52:10.861Z,24.73
2022-09-03T02:54:41.351Z,25.13
2022-09-03T02:57:13.893Z,22.42
2022-09-03T02:59:47.080Z,23.25
2022-09-03T03:02:16.608Z,25.15
2022-09-03T03:04:46.067Z,24.63
2022-09-03T03:07:15.261Z,24.40
2022-09-03T03:09:45.306Z,25.15
2022-09-03T03:12:14.712Z,23.88
2022-09-03T03:14:44.007Z,25.35
2022-09-03T03:17:13.437Z,25.80
2022-09-03T03:19:42.649Z,24.25
2022-09-03T03:22:11.729Z,25.67
2022-09-03T03:24:41.126Z,26.38
2022-09-03T03:27:12.106Z,24.85
2022-09-03T03:29:42.060Z,24.92
2022-09-03T03:32:11.256Z,24.70
2022-09-03T03:34:41.785Z,24.08
2022-09-03T03:37:11.176Z,25.10
2022-09-03T03:39:40.697Z,23.23
2022-09-03T03:42:10.412Z,24.52
2022-09-03T03:44:39.509Z,23.38
2022-09-03T03:47:08.814Z,24.13
2022-09-03T03:49:39.234Z,24.10
2022-09-03T03:52:08.565Z,22.42
2022-09-03T03:57:41.452Z,24.13
2022-09-03T04:00:11.374Z,23.27
2022-09-03T04:02:43.595Z,22.08
2022-09-03T04:05:13.217Z,27.35
2022-09-03T04:07:42.237Z,23.08
2022-09-03T04:10:11.917Z,21.60
2022-09-03T04:12:41.680Z,21.35
2022-09-03T04:15:11.321Z,22.52
2022-09-03T04:17:40.935Z,22.45
2022-09-03T04:20:11.205Z,22.85
2022-09-03T04:22:40.750Z,26.08
2022-09-03T04:25:10.321Z,23.05
2022-09-03T04:27:39.694Z,23.75
2022-09-03T04:30:09.832Z,23.50
2022-09-03T04:32:54.683Z,21.95
2022-09-03T04:35:26.428Z,23.48
2022-09-03T04:37:56.584Z,21.90
2022-09-03T04:40:26.332Z,22.55
2022-09-03T04:43:00.915Z,22.75
2022-09-03T04:45:31.003Z,20.88
2022-09-03T04:48:06.183Z,24.85
2022-09-03T04:50:36.692Z,22.63
2022-09-03T04:53:08.448Z,20.83
2022-09-03T04:55:39.176Z,28.90
2022-09-03T04:58:11.917Z,37.85
2022-09-03T05:00:41.398Z,34.50
2022-09-03T05:03:10.538Z,18.58
2022-09-03T05:05:48.590Z,14.77
2022-09-03T05:08:20.041Z,10.30
2022-09-03T05:10:49.930Z,7.57
2022-09-03T05:13:24.417Z,7.68
2022-09-03T05:15:54.361Z,8.80
2022-09-03T05:18:24.110Z,8.77
2022-09-03T05:21:19.534Z,8.57
2022-09-03T05:23:53.963Z,11.45
2022-09-03T05:26:28.708Z,7.53
2022-09-03T05:29:00.641Z,8.18
2022-09-03T05:31:33.507Z,11.02
2022-09-03T05:34:04.921Z,9.82
2022-09-03T05:36:37.017Z,8.80
2022-09-03T05:41:35.829Z,10.73
2022-09-03T05:44:07.538Z,8.98
2022-09-03T05:46:38.753Z,10.57
2022-09-03T05:49:09.285Z,13.40
2022-09-03T05:51:43.683Z,14.10
2022-09-03T05:54:13.264Z,11.15
2022-09-03T05:56:43.495Z,10.70
2022-09-03T05:59:15.220Z,17.05
2022-09-03T06:01:50.955Z,11.40
2022-09-03T06:04:22.430Z,8.40
2022-09-03T06:06:51.958Z,8.95
2022-09-03T06:09:23.725Z,8.82
2022-09-03T06:11:57.372Z,8.82
2022-09-03T06:14:28.615Z,8.05
2022-09-03T06:16:58.203Z,8.10
2022-09-03T06:19:27.437Z,9.10
2022-09-03T06:21:56.812Z,9.93
2022-09-03T06:24:28.630Z,9.85
2022-09-03T06:29:30.774Z,8.83
2022-09-03T06:32:05.054Z,7.78
2022-09-03T06:37:03.339Z,5.85
2022-09-03T06:39:33.168Z,5.35
2022-09-03T06:42:02.434Z,6.97
2022-09-03T06:44:37.669Z,7.22
2022-09-03T06:47:06.976Z,7.90
2022-09-03T06:49:36.169Z,6.32
2022-09-03T06:52:05.395Z,6.07
2022-09-03T06:54:34.982Z,8.15
2022-09-03T06:57:07.440Z,6.70
2022-09-03T06:59:37.374Z,5.93
2022-09-03T07:02:08.096Z,23.85
2022-09-03T07:04:37.752Z,11.00
2022-09-03T07:07:07.055Z,5.70
2022-09-03T07:09:39.510Z,8.48
2022-09-03T07:12:12.030Z,6.22
2022-09-03T07:14:41.856Z,14.05
2022-09-03T07:17:12.606Z,6.40
2022-09-03T07:19:41.785Z,5.90
2022-09-03T07:22:11.975Z,6.68
2022-09-03T07:24:41.534Z,6.57
2022-09-03T07:27:14.430Z,6.28
2022-09-03T07:29:44.386Z,6.50
2022-09-03T07:32:13.511Z,7.40
2022-09-03T07:34:42.651Z,6.75
2022-09-03T07:37:12.580Z,6.65
2022-09-03T07:39:42.539Z,6.40
2022-09-03T07:42:12.244Z,6.65
2022-09-03T07:44:41.436Z,6.97
2022-09-03T07:47:11.873Z,7.82
2022-09-03T07:49:41.228Z,6.65
2022-09-03T07:52:12.036Z,7.15
2022-09-03T07:54:43.488Z,6.75
2022-09-03T07:57:12.970Z,6.82
2022-09-03T07:59:43.064Z,7.78
2022-09-03T08:02:12.553Z,6.55
2022-09-03T08:04:42.640Z,5.80
2022-09-03T08:07:11.804Z,6.57
2022-09-03T08:09:41.950Z,6.07
2022-09-03T08:12:11.150Z,6.45
2022-09-03T08:14:40.374Z,6.07
2022-09-03T08:17:09.921Z,5.88
2022-09-03T08:19:38.826Z,7.07
2022-09-03T08:22:08.057Z,5.93
2022-09-03T08:24:37.989Z,6.18
2022-09-03T08:27:07.039Z,6.07
2022-09-03T08:29:36.357Z,6.38
2022-09-03T08:32:06.699Z,7.32
2022-09-03T08:34:36.424Z,6.07
2022-09-03T08:37:07.357Z,6.55
2022-09-03T08:39:37.028Z,5.47
2022-09-03T08:42:28.338Z,7.50
2022-09-03T08:45:04.495Z,8.30
2022-09-03T08:47:48.192Z,5.43
2022-09-03T08:50:40.417Z,6.30
2022-09-03T08:55:55.104Z,6.03
2022-09-03T08:58:29.009Z,7.00
2022-09-03T09:01:28.707Z,6.38
2022-09-03T09:04:05.676Z,7.30
2022-09-03T09:07:06.990Z,6.95
2022-09-03T09:09:49.988Z,7.07
2022-09-03T09:12:44.044Z,6.47
2022-09-03T09:15:39.045Z,6.43
2022-09-03T09:18:23.883Z,6.30
2022-09-03T09:21:09.831Z,6.25
2022-09-03T09:23:47.731Z,6.90
2022-09-03T09:26:22.918Z,7.95
2022-09-03T09:29:00.132Z,6.95
2022-09-03T09:31:32.009Z,7.65
2022-09-03T09:34:09.781Z,6.10
2022-09-03T09:36:50.782Z,6.72
2022-09-03T09:39:20.529Z,6.45
2022-09-03T09:42:10.438Z,10.93
2022-09-03T09:44:42.692Z,7.78
2022-09-03T09:47:36.080Z,5.82
2022-09-03T09:50:05.973Z,6.25
2022-09-03T09:53:15.639Z,6.00
2022-09-03T09:55:57.361Z,6.78
2022-09-03T09:58:31.764Z,5.15
2022-09-03T10:01:04.929Z,5.22
2022-09-03T10:03:38.776Z,5.72
2022-09-03T10:06:34.143Z,4.78
2022-09-03T10:09:16.961Z,9.38
2022-09-03T10:11:55.129Z,11.18
2022-09-03T10:14:36.130Z,5.07
2022-09-03T10:17:40.890Z,5.60
2022-09-03T10:20:40.561Z,5.18
2022-09-03T10:23:19.869Z,5.93
2022-09-03T10:26:05.475Z,6.30
2022-09-03T10:28:42.660Z,5.25
2022-09-03T10:31:49.285Z,5.45
2022-09-03T10:34:21.971Z,5.75
2022-09-03T10:37:04.160Z,6.38
2022-09-03T10:39:55.214Z,7.15
2022-09-03T10:42:48.256Z,6.63
2022-09-03T10:45:30.383Z,5.78
2022-09-03T10:48:41.761Z,6.60
2022-09-03T10:51:25.446Z,7.03
2022-09-03T10:54:33.633Z,6.07
2022-09-03T10:57:15.445Z,6.50
2022-09-03T11:00:12.030Z,6.68
2022-09-03T11:02:44.748Z,8.98
2022-09-03T11:05:50.662Z,11.25
2022-09-03T11:08:29.936Z,11.43
2022-09-03T11:11:17.625Z,12.15
2022-09-03T11:13:56.271Z,13.13
2022-09-03T11:16:33.744Z,11.65
2022-09-03T11:19:09.447Z,24.23
2022-09-03T11:21:43.392Z,14.20
2022-09-03T11:24:15.678Z,13.20
2022-09-03T11:26:52.802Z,12.75
2022-09-03T11:29:43.933Z,12.40
2022-09-03T11:32:25.174Z,12.48
2022-09-03T11:34:56.476Z,12.35
2022-09-03T11:37:27.262Z,12.53
2022-09-03T11:40:01.159Z,11.97
2022-09-03T11:42:38.591Z,14.07
2022-09-03T11:45:39.873Z,13.25
2022-09-03T11:48:48.818Z,15.13
2022-09-03T11:51:33.399Z,13.80
2022-09-03T11:54:14.378Z,14.43
2022-09-03T11:56:44.113Z,13.30
2022-09-03T12:02:37.198Z,16.15
2022-09-03T12:05:15.118Z,14.30
2022-09-03T12:08:08.895Z,15.27
2022-09-03T12:10:50.863Z,15.30
2022-09-03T12:13:48.398Z,14.13
2022-09-03T12:16:43.087Z,13.13
2022-09-03T12:19:37.546Z,13.82
2022-09-03T12:22:07.411Z,13.32
2022-09-03T12:24:39.056Z,13.07
2022-09-03T12:27:12.433Z,14.10
2022-09-03T12:29:57.697Z,12.82
2022-09-03T12:32:28.362Z,13.68
2022-09-03T12:34:57.811Z,14.40
2022-09-03T12:40:32.148Z,12.75
2022-09-03T12:46:10.673Z,11.68
2022-09-03T12:48:43.990Z,12.13
2022-09-03T12:54:05.043Z,11.07
2022-09-03T12:56:36.596Z,12.35
2022-09-03T12:59:12.454Z,12.05
2022-09-03T13:01:50.540Z,12.27
2022-09-03T13:04:31.654Z,13.50
2022-09-03T13:07:28.901Z,11.57
2022-09-03T13:10:05.710Z,15.10
2022-09-03T13:12:44.592Z,12.15
2022-09-03T13:15:29.309Z,11.60
2022-09-03T13:18:10.139Z,11.90
2022-09-03T13:21:03.438Z,13.00
2022-09-03T13:23:51.823Z,13.80
2022-09-03T13:27:00.027Z,12.32
2022-09-03T13:29:38.119Z,11.93
2022-09-03T13:32:52.321Z,12.82
2022-09-03T13:35:41.486Z,13.07
2022-09-03T13:38:23.727Z,10.35
2022-09-03T13:41:20.741Z,11.20
2022-09-03T13:44:11.173Z,12.88
2022-09-03T13:47:04.521Z,12.10
2022-09-03T13:50:03.674Z,11.35
2022-09-03T13:52:58.228Z,15.02
2022-09-03T13:55:39.888Z,12.95
2022-09-03T13:58:54.326Z,12.63
2022-09-03T14:01:45.727Z,19.65
2022-09-03T14:04:31.513Z,10.88
2022-09-03T14:07:11.498Z,9.93
2022-09-03T14:10:17.392Z,9.55
2022-09-03T14:12:52.449Z,9.52
2022-09-03T14:15:51.298Z,8.45
2022-09-03T14:18:44.917Z,7.78
2022-09-03T14:21:30.773Z,8.00
2022-09-03T14:24:16.183Z,8.52
2022-09-03T14:27:03.561Z,8.75
2022-09-03T14:29:35.696Z,8.80
2022-09-03T14:34:43.084Z,7.55
2022-09-03T14:37:36.524Z,8.65
2022-09-03T14:40:14.988Z,8.25
2022-09-03T14:42:50.613Z,9.73
2022-09-03T14:45:29.406Z,8.35
2022-09-03T14:48:07.780Z,8.80
2022-09-03T14:50:55.073Z,7.90
2022-09-03T14:53:42.852Z,8.95
2022-09-03T14:56:20.704Z,7.85
2022-09-03T14:59:16.890Z,7.95
2022-09-03T15:01:58.186Z,10.32
2022-09-03T15:05:02.674Z,9.75
2022-09-03T15:07:35.874Z,9.80
2022-09-03T15:10:47.779Z,9.70
2022-09-03T15:13:42.915Z,9.95
2022-09-03T15:16:42.160Z,8.05
2022-09-03T15:19:49.034Z,8.10
2022-09-03T15:22:36.782Z,8.38
2022-09-03T15:25:25.309Z,9.82
2022-09-03T15:28:03.477Z,10.23
2022-09-03T15:30:51.292Z,10.98
2022-09-03T15:33:33.108Z,11.50
2022-09-03T15:36:18.724Z,10.52
2022-09-03T15:39:05.090Z,12.23
2022-09-03T15:41:51.813Z,11.43
2022-09-03T15:44:21.821Z,11.25
2022-09-03T15:47:51.628Z,11.25
2022-09-03T15:50:30.746Z,10.70
2022-09-03T15:53:17.951Z,11.25
2022-09-03T15:55:49.792Z,11.82
2022-09-03T15:58:44.340Z,12.53
2022-09-03T16:01:38.547Z,10.52
2022-09-03T16:04:44.449Z,9.35
2022-09-03T16:07:17.269Z,9.50
2022-09-03T16:10:24.763Z,10.18
2022-09-03T16:13:02.305Z,9.75
2022-09-03T16:15:35.636Z,10.02
2022-09-03T16:18:56.823Z,9.65
2022-09-03T16:21:34.984Z,11.13
2022-09-03T16:24:35.914Z,12.00
2022-09-03T16:27:16.741Z,12.68
2022-09-03T16:30:04.148Z,11.27
2022-09-03T16:32:45.567Z,12.68
2022-09-03T16:35:37.403Z,11.47
2022-09-03T16:38:29.604Z,11.57
2022-09-03T16:41:14.400Z,11.70
2022-09-03T16:44:03.674Z,13.10
2022-09-03T16:46:56.595Z,13.73
2022-09-03T16:52:37.785Z,13.32
2022-09-03T16:55:29.137Z,13.07
2022-09-03T16:58:11.093Z,13.15
2022-09-03T17:01:21.752Z,12.95
2022-09-03T17:04:06.280Z,12.68
2022-09-03T17:06:41.609Z,15.52
2022-09-03T17:09:41.078Z,18.50
2022-09-03T17:12:45.963Z,16.75
2022-09-03T17:15:15.633Z,12.40
2022-09-03T17:18:36.486Z,12.35
2022-09-03T17:21:28.875Z,14.20
2022-09-03T17:24:10.362Z,14.18
2022-09-03T17:27:04.367Z,13.98
2022-09-03T17:29:45.726Z,13.75
2022-09-03T17:32:33.312Z,13.48
2022-09-03T17:35:27.959Z,13.80
2022-09-03T17:38:27.481Z,13.85
2022-09-03T17:41:38.078Z,16.10
2022-09-03T17:44:22.713Z,13.40
2022-09-03T17:47:00.916Z,13.80
2022-09-03T17:49:53.684Z,13.20
2022-09-03T17:52:28.885Z,13.52
2022-09-03T17:55:03.258Z,12.43
2022-09-03T17:57:45.751Z,12.50
2022-09-03T18:00:27.208Z,12.87
2022-09-03T18:03:02.331Z,12.40
2022-09-03T18:05:44.363Z,13.38
2022-09-03T18:08:20.230Z,14.10
2022-09-03T18:11:21.562Z,12.52
2022-09-03T18:14:17.845Z,12.98
2022-09-03T18:17:12.975Z,13.07
2022-09-03T18:20:12.334Z,12.45
2022-09-03T18:23:25.364Z,13.80
2022-09-03T18:26:27.248Z,12.90
2022-09-03T18:29:23.583Z,12.80
2022-09-03T18:32:11.211Z,14.13
2022-09-03T18:35:00.074Z,13.82
2022-09-03T18:37:48.238Z,15.82
2022-09-03T18:40:46.738Z,15.70
2022-09-03T18:43:54.105Z,14.27
2022-09-03T18:50:45.050Z,12.65
2022-09-03T18:53:47.161Z,13.90
2022-09-03T18:56:46.020Z,13.88
2022-09-03T18:59:51.724Z,15.27
2022-09-03T19:03:04.004Z,14.40
2022-09-03T19:09:09.466Z,13.82
2022-09-03T19:12:19.079Z,14.52
2022-09-03T19:15:18.196Z,13.85
2022-09-03T19:18:27.568Z,15.55
2022-09-03T19:21:33.397Z,16.70
2022-09-03T19:24:22.052Z,15.20
2022-09-03T19:27:53.418Z,15.35
2022-09-03T19:30:50.645Z,15.98
2022-09-03T19:34:06.438Z,15.13
2022-09-03T19:37:20.552Z,15.85
2022-09-03T19:40:33.336Z,16.35
2022-09-03T19:43:42.076Z,15.63
2022-09-03T19:46:39.238Z,15.02
2022-09-03T19:49:37.315Z,12.75
2022-09-03T19:52:49.958Z,14.32
2022-09-03T19:55:52.761Z,13.13
2022-09-03T19:58:44.475Z,12.93
2022-09-03T20:01:33.654Z,12.57
2022-09-03T20:04:31.679Z,13.88
2022-09-03T20:07:25.682Z,12.98
2022-09-03T20:10:17.202Z,12.40
2022-09-03T20:12:55.893Z,12.65
2022-09-03T20:15:32.257Z,12.50
2022-09-03T20:18:22.702Z,11.73
2022-09-03T20:21:20.182Z,10.95
2022-09-03T20:24:05.861Z,12.68
2022-09-03T20:27:15.106Z,11.80
2022-09-03T20:30:23.915Z,11.10
2022-09-03T20:32:59.327Z,11.50
2022-09-03T20:36:06.934Z,10.10
2022-09-03T20:39:12.630Z,10.80
2022-09-03T20:42:04.371Z,10.82
2022-09-03T20:45:07.570Z,9.80
2022-09-03T20:47:51.605Z,10.02
2022-09-03T20:50:44.875Z,10.98
2022-09-03T20:53:53.430Z,8.77
2022-09-03T20:56:39.122Z,10.20
2022-09-03T20:59:33.286Z,10.25
2022-09-03T21:02:19.579Z,9.88
2022-09-03T21:05:17.995Z,10.13
2022-09-03T21:07:56.296Z,8.85
2022-09-03T21:10:34.982Z,10.57
2022-09-03T21:13:38.525Z,10.15
2022-09-03T21:16:37.320Z,9.82
2022-09-03T21:19:27.615Z,10.05
2022-09-03T21:22:19.674Z,10.60
2022-09-03T21:25:01.892Z,11.45
2022-09-03T21:30:19.874Z,12.55
2022-09-03T21:33:20.968Z,12.32
2022-09-03T21:36:27.520Z,10.73
2022-09-03T21:39:02.867Z,10.98
2022-09-03T21:41:41.490Z,10.73
2022-09-03T21:44:18.380Z,10.60
2022-09-03T21:47:08.119Z,10.52
2022-09-03T21:49:48.892Z,10.02
2022-09-03T21:52:23.202Z,9.95
2022-09-03T21:54:53.390Z,10.15
2022-09-03T21:57:43.936Z,10.02
2022-09-03T22:00:22.174Z,9.90
2022-09-03T22:02:52.001Z,10.88
2022-09-03T22:05:22.394Z,11.35
2022-09-03T22:08:10.547Z,10.15
2022-09-03T22:10:55.940Z,10.98
2022-09-03T22:13:32.843Z,9.38
2022-09-03T22:16:18.965Z,9.25
2022-09-03T22:18:51.355Z,9.88
2022-09-03T22:24:24.293Z,9.48
2022-09-03T22:27:12.129Z,9.82
2022-09-03T22:30:03.959Z,10.10
2022-09-03T22:33:03.783Z,9.52
2022-09-03T22:35:51.374Z,11.23
2022-09-03T22:38:47.646Z,9.43
2022-09-03T22:41:21.311Z,8.82
2022-09-03T22:44:12.407Z,9.75
2022-09-03T22:47:12.546Z,10.80
2022-09-03T22:49:58.340Z,9.25
2022-09-03T22:52:36.565Z,9.20
2022-09-03T22:55:11.220Z,9.23
2022-09-03T22:58:03.992Z,8.85
2022-09-03T23:00:44.251Z,9.30
2022-09-03T23:03:20.733Z,8.95
2022-09-03T23:05:57.959Z,9.93
2022-09-03T23:08:52.011Z,10.02
2022-09-03T23:11:49.400Z,10.32
2022-09-03T23:14:29.916Z,9.80
2022-09-03T23:17:14.537Z,10.38
2022-09-03T23:19:51.974Z,9.45
2022-09-03T23:22:35.653Z,8.88
2022-09-03T23:25:12.272Z,10.70
2022-09-03T23:27:50.906Z,10.93
2022-09-03T23:30:21.026Z,10.18
2022-09-03T23:32:59.215Z,10.15
2022-09-03T23:35:31.671Z,10.00
2022-09-03T23:38:31.585Z,9.85
2022-09-03T23:41:08.249Z,11.98
2022-09-03T23:44:02.868Z,11.35
2022-09-03T23:46:45.844Z,11.40
2022-09-03T23:49:37.857Z,10.15
2022-09-03T23:55:15.143Z,9.82
2022-09-03T23:57:59.754Z,10.40
